createdAt,value
2023-03-01T00:01:22.664Z,5.13
2023-03-01T00:03:51.025Z,5.00
2023-03-01T00:06:19.591Z,3.83
2023-03-01T00:08:49.394Z,4.33
2023-03-01T00:11:19.697Z,4.30
2023-03-01T00:13:49.009Z,5.00
2023-03-01T00:16:19.134Z,4.40
2023-03-01T00:18:47.557Z,5.70
2023-03-01T00:21:15.588Z,4.90
2023-03-01T00:23:43.708Z,5.13
2023-03-01T00:26:15.949Z,5.77
2023-03-01T00:28:45.047Z,5.40
2023-03-01T00:31:15.188Z,5.77
2023-03-01T00:33:43.691Z,5.23
2023-03-01T00:36:13.682Z,5.20
2023-03-01T00:38:43.687Z,5.73
2023-03-01T00:41:14.915Z,5.93
2023-03-01T00:43:43.332Z,5.87
2023-03-01T00:46:13.700Z,5.70
2023-03-01T00:48:42.035Z,4.83
2023-03-01T00:51:12.394Z,5.47
2023-03-01T00:53:40.898Z,5.07
2023-03-01T00:56:10.587Z,6.00
2023-03-01T00:58:40.468Z,5.30
2023-03-01T01:01:18.572Z,4.90
2023-03-01T01:03:51.012Z,6.77
2023-03-01T01:06:21.363Z,5.83
2023-03-01T01:08:50.062Z,6.37
2023-03-01T01:11:18.401Z,6.07
2023-03-01T01:13:49.302Z,5.63
2023-03-01T01:16:18.777Z,6.70
2023-03-01T01:18:47.244Z,6.37
2023-03-01T01:21:17.918Z,8.27
2023-03-01T01:23:47.290Z,6.13
2023-03-01T01:26:17.597Z,6.57
2023-03-01T01:28:47.086Z,6.27
2023-03-01T01:31:15.775Z,6.00
2023-03-01T01:33:43.857Z,5.67
2023-03-01T01:36:11.989Z,6.17
2023-03-01T01:38:40.880Z,6.13
2023-03-01T01:41:09.188Z,5.30
2023-03-01T01:43:39.264Z,7.07
2023-03-01T01:46:16.483Z,6.53
2023-03-01T01:48:48.575Z,6.23
2023-03-01T01:51:20.513Z,5.57
2023-03-01T01:53:52.840Z,5.20
2023-03-01T01:56:22.115Z,5.37
2023-03-01T01:58:50.585Z,6.23
2023-03-01T02:01:20.072Z,6.07
2023-03-01T02:03:48.946Z,7.00
2023-03-01T02:06:21.907Z,6.83
2023-03-01T02:08:52.999Z,6.20
2023-03-01T02:11:21.345Z,6.50
2023-03-01T02:13:50.190Z,6.50
2023-03-01T02:16:20.069Z,6.10
2023-03-01T02:18:48.443Z,6.63
2023-03-01T02:21:33.906Z,7.03
2023-03-01T02:24:08.256Z,5.80
2023-03-01T02:26:42.821Z,6.00
2023-03-01T02:29:12.231Z,5.17
2023-03-01T02:31:45.967Z,5.70
2023-03-01T02:34:17.932Z,5.43
2023-03-01T02:36:49.355Z,6.20
2023-03-01T02:39:20.894Z,5.43
2023-03-01T02:41:52.291Z,5.90
2023-03-01T02:44:22.624Z,6.60
2023-03-01T02:46:52.927Z,4.93
2023-03-01T02:49:26.632Z,5.17
2023-03-01T02:52:35.615Z,6.60
2023-03-01T02:55:06.977Z,6.33
2023-03-01T02:57:38.793Z,4.83
2023-03-01T03:00:11.615Z,5.47
2023-03-01T03:02:39.732Z,5.07
2023-03-01T03:05:10.661Z,5.33
2023-03-01T03:07:42.045Z,5.17
2023-03-01T03:10:13.157Z,5.07
2023-03-01T03:12:41.715Z,4.33
2023-03-01T03:15:13.676Z,4.23
2023-03-01T03:17:44.634Z,4.23
2023-03-01T03:20:19.908Z,4.80
2023-03-01T03:22:49.568Z,4.33
2023-03-01T03:25:18.293Z,4.27
2023-03-01T03:27:47.890Z,4.67
2023-03-01T03:30:19.284Z,4.57
2023-03-01T03:32:53.116Z,4.67
2023-03-01T03:35:22.486Z,3.47
2023-03-01T03:38:07.056Z,4.60
2023-03-01T03:40:39.292Z,5.33
2023-03-01T03:43:09.045Z,4.93
2023-03-01T03:45:38.792Z,3.60
2023-03-01T03:48:10.206Z,4.93
2023-03-01T03:50:38.716Z,5.10
2023-03-01T03:53:09.544Z,4.37
2023-03-01T03:55:40.247Z,3.30
2023-03-01T03:58:11.106Z,4.73
2023-03-01T04:00:42.428Z,4.67
2023-03-01T04:03:11.082Z,4.67
2023-03-01T04:05:40.909Z,3.57
2023-03-01T04:08:09.911Z,5.77
2023-03-01T04:10:40.265Z,4.80
2023-03-01T04:13:11.388Z,4.00
2023-03-01T04:15:41.593Z,5.67
2023-03-01T04:18:10.911Z,5.07
2023-03-01T04:20:39.065Z,3.33
2023-03-01T04:23:16.613Z,4.20
2023-03-01T04:25:50.395Z,5.30
2023-03-01T04:28:18.660Z,4.40
2023-03-01T04:30:48.057Z,4.10
2023-03-01T04:33:16.124Z,5.33
2023-03-01T04:35:44.452Z,5.00
2023-03-01T04:38:12.758Z,4.43
2023-03-01T04:40:43.457Z,4.37
2023-03-01T04:43:12.524Z,3.63
2023-03-01T04:45:40.561Z,4.93
2023-03-01T04:48:10.113Z,4.20
2023-03-01T04:50:38.353Z,4.67
2023-03-01T04:53:06.534Z,3.73
2023-03-01T04:55:35.517Z,4.13
2023-03-01T04:58:03.557Z,4.70
2023-03-01T05:00:31.513Z,4.97
2023-03-01T05:03:02.030Z,3.97
2023-03-01T05:05:35.202Z,4.13
2023-03-01T05:08:05.961Z,4.90
2023-03-01T05:10:36.264Z,4.37
2023-03-01T05:13:05.592Z,4.10
2023-03-01T05:15:34.016Z,4.93
2023-03-01T05:18:02.347Z,4.40
2023-03-01T05:20:32.201Z,4.80
2023-03-01T05:23:06.061Z,5.23
2023-03-01T05:25:35.164Z,4.23
2023-03-01T05:28:05.255Z,4.43
2023-03-01T05:30:33.853Z,4.00
2023-03-01T05:33:02.250Z,4.23
2023-03-01T05:35:33.610Z,5.50
2023-03-01T05:38:01.749Z,4.57
2023-03-01T05:40:30.168Z,4.57
2023-03-01T05:42:59.028Z,5.50
2023-03-01T05:45:28.502Z,4.77
2023-03-01T05:47:57.082Z,5.17
2023-03-01T05:50:27.513Z,3.60
2023-03-01T05:53:01.318Z,4.77
2023-03-01T05:55:31.346Z,4.47
2023-03-01T05:58:01.630Z,3.93
2023-03-01T06:00:31.495Z,3.53
2023-03-01T06:03:00.970Z,3.87
2023-03-01T06:05:30.169Z,4.90
2023-03-01T06:08:01.201Z,4.97
2023-03-01T06:10:30.707Z,4.90
2023-03-01T06:12:58.962Z,5.70
2023-03-01T06:15:27.572Z,4.97
2023-03-01T06:17:59.685Z,3.83
2023-03-01T06:20:29.514Z,3.67
2023-03-01T06:22:59.338Z,5.00
2023-03-01T06:25:28.963Z,4.90
2023-03-01T06:27:57.053Z,4.30
2023-03-01T06:30:27.510Z,3.87
2023-03-01T06:33:01.615Z,4.30
2023-03-01T06:35:31.706Z,5.60
2023-03-01T06:38:02.300Z,4.93
2023-03-01T06:40:32.042Z,5.50
2023-03-01T06:43:00.280Z,5.07
2023-03-01T06:45:28.355Z,4.70
2023-03-01T06:48:04.500Z,6.37
2023-03-01T06:50:32.890Z,5.07
2023-03-01T06:53:02.309Z,5.03
2023-03-01T06:55:30.517Z,5.53
2023-03-01T06:57:59.098Z,5.30
2023-03-01T07:00:27.382Z,5.90
2023-03-01T07:02:55.882Z,5.77
2023-03-01T07:05:23.867Z,5.60
2023-03-01T07:07:51.849Z,4.87
2023-03-01T07:10:21.366Z,5.97
2023-03-01T07:12:49.345Z,5.60
2023-03-01T07:15:17.490Z,6.60
2023-03-01T07:17:45.624Z,5.50
2023-03-01T07:20:14.364Z,5.07
2023-03-01T07:22:43.358Z,5.23
2023-03-01T07:25:11.414Z,6.80
2023-03-01T07:27:41.377Z,5.70
2023-03-01T07:30:10.609Z,6.07
2023-03-01T07:32:38.958Z,6.10
2023-03-01T07:35:07.998Z,5.83
2023-03-01T07:37:35.953Z,5.47
2023-03-01T07:40:04.368Z,5.10
2023-03-01T07:42:32.338Z,6.67
2023-03-01T07:45:01.695Z,5.17
2023-03-01T07:47:29.632Z,5.80
2023-03-01T07:49:57.604Z,4.43
2023-03-01T07:52:26.034Z,6.03
2023-03-01T07:54:53.953Z,5.13
2023-03-01T07:57:23.680Z,5.50
2023-03-01T07:59:51.600Z,4.33
2023-03-01T08:02:20.933Z,5.10
2023-03-01T08:04:48.867Z,4.80
2023-03-01T08:07:16.976Z,5.20
2023-03-01T08:09:45.036Z,5.40
2023-03-01T08:12:13.040Z,4.30
2023-03-01T08:14:41.021Z,3.93
2023-03-01T08:17:08.981Z,4.00
2023-03-01T08:19:39.064Z,3.27
2023-03-01T08:22:07.065Z,4.23
2023-03-01T08:24:35.033Z,3.73
2023-03-01T08:27:03.706Z,4.80
2023-03-01T08:29:32.799Z,3.70
2023-03-01T08:32:01.174Z,3.97
2023-03-01T08:34:29.372Z,3.23
2023-03-01T08:36:59.154Z,3.57
2023-03-01T08:39:27.120Z,2.83
2023-03-01T08:41:55.174Z,3.37
2023-03-01T08:44:23.172Z,2.37
2023-03-01T08:46:53.128Z,3.83
2023-03-01T08:49:22.195Z,2.80
2023-03-01T08:51:50.536Z,2.40
2023-03-01T08:54:21.457Z,2.83
2023-03-01T08:56:49.873Z,4.50
2023-03-01T08:59:19.286Z,2.30
2023-03-01T09:01:47.468Z,2.33
2023-03-01T09:04:17.207Z,1.80
2023-03-01T09:06:45.199Z,2.23
2023-03-01T09:09:17.074Z,2.10
2023-03-01T09:11:47.795Z,2.60
2023-03-01T09:14:16.450Z,2.47
2023-03-01T09:16:44.698Z,2.57
2023-03-01T09:19:13.232Z,2.33
2023-03-01T09:21:41.580Z,3.23
2023-03-01T09:24:14.878Z,3.37
2023-03-01T09:26:43.151Z,3.50
2023-03-01T09:29:12.523Z,3.77
2023-03-01T09:31:41.066Z,3.10
2023-03-01T09:34:09.963Z,2.30
2023-03-01T09:36:38.759Z,3.43
2023-03-01T09:39:07.853Z,1.67
2023-03-01T09:42:00.819Z,2.30
2023-03-01T09:44:36.989Z,2.93
2023-03-01T09:47:06.144Z,5.30
2023-03-01T09:49:37.172Z,1.93
2023-03-01T09:52:14.498Z,2.50
2023-03-01T09:54:42.592Z,3.53
2023-03-01T09:57:21.567Z,3.77
2023-03-01T10:00:09.510Z,3.47
2023-03-01T10:02:44.683Z,3.00
2023-03-01T10:05:29.605Z,4.67
2023-03-01T10:08:08.959Z,5.87
2023-03-01T10:10:39.641Z,1.47
2023-03-01T10:13:17.266Z,2.87
2023-03-01T10:15:56.304Z,2.53
2023-03-01T10:18:28.064Z,2.20
2023-03-01T10:21:00.307Z,1.60
2023-03-01T10:23:30.073Z,6.23
2023-03-01T10:26:13.389Z,5.27
2023-03-01T10:28:52.728Z,6.10
2023-03-01T10:31:29.351Z,5.77
2023-03-01T10:33:59.951Z,6.27
2023-03-01T10:36:27.998Z,3.90
2023-03-01T10:38:58.747Z,8.63
2023-03-01T10:41:29.813Z,6.53
2023-03-01T10:44:01.108Z,6.80
2023-03-01T10:46:33.251Z,6.93
2023-03-01T10:49:20.721Z,6.53
2023-03-01T10:51:50.948Z,7.43
2023-03-01T10:54:21.897Z,8.27
2023-03-01T10:56:53.678Z,7.13
2023-03-01T10:59:29.627Z,7.53
2023-03-01T11:02:24.442Z,5.13
2023-03-01T11:05:04.611Z,4.50
2023-03-01T11:07:32.851Z,9.17
2023-03-01T11:10:01.025Z,1.70
2023-03-01T11:12:30.700Z,6.43
2023-03-01T11:14:59.715Z,11.23
2023-03-01T11:17:34.622Z,9.20
2023-03-01T11:20:22.348Z,9.00
2023-03-01T11:22:55.159Z,7.23
2023-03-01T11:25:27.396Z,9.00
2023-03-01T11:27:58.420Z,5.90
2023-03-01T11:30:30.782Z,9.50
2023-03-01T11:33:15.855Z,8.20
2023-03-01T11:35:47.586Z,10.00
2023-03-01T11:38:23.171Z,5.90
2023-03-01T11:40:59.449Z,9.90
2023-03-01T11:43:34.464Z,8.20
2023-03-01T11:46:33.025Z,9.30
2023-03-01T11:49:28.009Z,14.60
2023-03-01T11:52:02.121Z,7.73
2023-03-01T11:54:45.856Z,6.60
2023-03-01T11:57:25.029Z,5.27
2023-03-01T12:00:07.265Z,7.23
2023-03-01T12:02:59.420Z,5.50
2023-03-01T12:05:46.283Z,6.80
2023-03-01T12:08:20.953Z,6.70
2023-03-01T12:10:59.135Z,5.63
2023-03-01T12:13:51.628Z,5.90
2023-03-01T12:16:39.277Z,7.30
2023-03-01T12:19:22.886Z,6.17
2023-03-01T12:22:05.440Z,4.73
2023-03-01T12:24:52.059Z,5.27
2023-03-01T12:27:43.297Z,6.87
2023-03-01T12:30:26.012Z,7.47
2023-03-01T12:33:05.044Z,5.80
2023-03-01T12:35:51.735Z,3.53
2023-03-01T12:38:36.155Z,4.07
2023-03-01T12:41:18.808Z,6.10
2023-03-01T12:43:56.732Z,6.53
2023-03-01T12:46:37.758Z,2.60
2023-03-01T12:49:11.925Z,4.20
2023-03-01T12:51:41.429Z,2.33
2023-03-01T12:54:17.850Z,2.40
2023-03-01T12:56:53.636Z,3.13
2023-03-01T12:59:27.631Z,2.37
2023-03-01T13:02:01.286Z,1.83
2023-03-01T13:04:42.432Z,1.50
2023-03-01T13:07:25.728Z,1.13
2023-03-01T13:10:05.162Z,1.20
2023-03-01T13:12:48.011Z,1.30
2023-03-01T13:15:30.856Z,1.10
2023-03-01T13:18:02.335Z,1.17
2023-03-01T13:20:35.404Z,0.83
2023-03-01T13:23:07.826Z,0.70
2023-03-01T13:25:57.643Z,0.90
2023-03-01T13:28:48.550Z,1.00
2023-03-01T13:32:02.501Z,0.80
2023-03-01T13:34:50.325Z,1.80
2023-03-01T13:37:30.395Z,1.10
2023-03-01T13:40:06.493Z,1.50
2023-03-01T13:42:56.219Z,1.30
2023-03-01T13:45:38.223Z,0.83
2023-03-01T13:48:14.792Z,1.27
2023-03-01T13:50:49.948Z,1.43
2023-03-01T13:53:21.063Z,1.10
2023-03-01T13:55:51.510Z,1.20
2023-03-01T13:58:27.113Z,1.10
2023-03-01T14:01:01.693Z,1.90
2023-03-01T14:03:32.347Z,1.40
2023-03-01T14:06:14.540Z,2.50
2023-03-01T14:08:45.109Z,1.53
2023-03-01T14:11:49.584Z,1.43
2023-03-01T14:14:48.669Z,1.33
2023-03-01T14:17:39.716Z,1.50
2023-03-01T14:20:15.062Z,0.90
2023-03-01T14:22:44.580Z,1.20
2023-03-01T14:25:27.425Z,1.70
2023-03-01T14:28:03.845Z,1.07
2023-03-01T14:30:37.305Z,1.00
2023-03-01T14:33:07.750Z,1.87
2023-03-01T14:35:38.371Z,1.80
2023-03-01T14:38:06.581Z,1.10
2023-03-01T14:40:36.812Z,1.73
2023-03-01T14:43:12.455Z,2.33
2023-03-01T14:45:41.984Z,1.17
2023-03-01T14:48:10.325Z,1.50
2023-03-01T14:50:44.264Z,2.47
2023-03-01T14:53:20.524Z,1.77
2023-03-01T14:55:50.987Z,1.87
2023-03-01T14:58:24.620Z,2.07
2023-03-01T15:00:57.117Z,1.40
2023-03-01T15:03:33.507Z,1.40
2023-03-01T15:06:03.544Z,1.10
2023-03-01T15:08:35.287Z,1.60
2023-03-01T15:11:08.666Z,1.40
2023-03-01T15:13:38.180Z,1.70
2023-03-01T15:16:13.128Z,1.60
2023-03-01T15:18:47.173Z,1.30
2023-03-01T15:21:20.487Z,3.30
2023-03-01T15:23:54.367Z,1.33
2023-03-01T15:26:28.169Z,1.80
2023-03-01T15:28:59.998Z,1.23
2023-03-01T15:31:31.725Z,1.50
2023-03-01T15:34:23.191Z,2.27
2023-03-01T15:36:52.147Z,1.20
2023-03-01T15:39:44.168Z,9.90
2023-03-01T15:42:13.958Z,2.80
2023-03-01T15:44:45.979Z,1.73
2023-03-01T15:47:31.296Z,1.63
2023-03-01T15:50:01.091Z,1.30
2023-03-01T15:52:31.737Z,1.33
2023-03-01T15:55:03.236Z,1.50
2023-03-01T15:57:31.276Z,1.47
2023-03-01T15:59:59.245Z,1.63
2023-03-01T16:02:28.647Z,2.63
2023-03-01T16:04:57.432Z,1.63
2023-03-01T16:07:27.812Z,1.63
2023-03-01T16:09:55.983Z,1.43
2023-03-01T16:12:25.115Z,1.60
2023-03-01T16:14:54.006Z,1.40
2023-03-01T16:17:21.962Z,1.80
2023-03-01T16:19:51.276Z,2.33
2023-03-01T16:22:21.969Z,2.13
2023-03-01T16:24:49.994Z,2.50
2023-03-01T16:27:18.001Z,2.30
2023-03-01T16:29:46.000Z,1.83
2023-03-01T16:32:14.135Z,3.67
2023-03-01T16:34:42.165Z,4.00
2023-03-01T16:37:11.526Z,12.77
2023-03-01T16:39:40.646Z,22.07
2023-03-01T16:42:08.695Z,2.73
2023-03-01T16:44:36.721Z,2.70
2023-03-01T16:47:04.756Z,2.87
2023-03-01T16:49:32.690Z,2.07
2023-03-01T16:52:00.776Z,1.60
2023-03-01T16:54:30.128Z,3.30
2023-03-01T16:56:58.365Z,2.33
2023-03-01T16:59:26.430Z,2.10
2023-03-01T17:01:54.409Z,1.83
2023-03-01T17:04:22.471Z,2.13
2023-03-01T17:06:50.797Z,1.93
2023-03-01T17:09:18.842Z,1.67
2023-03-01T17:11:48.345Z,2.23
2023-03-01T17:14:17.074Z,2.17
2023-03-01T17:16:46.064Z,2.20
2023-03-01T17:19:18.464Z,3.07
2023-03-01T17:21:49.273Z,2.93
2023-03-01T17:24:17.632Z,2.97
2023-03-01T17:26:45.746Z,2.20
2023-03-01T17:29:18.303Z,1.83
2023-03-01T17:31:46.356Z,2.37
2023-03-01T17:34:16.052Z,2.77
2023-03-01T17:36:46.824Z,2.60
2023-03-01T17:39:14.940Z,2.13
2023-03-01T17:41:42.917Z,2.00
2023-03-01T17:44:10.921Z,2.00
2023-03-01T17:46:40.330Z,2.47
2023-03-01T17:49:08.292Z,2.07
2023-03-01T17:51:37.507Z,1.70
2023-03-01T17:54:06.999Z,2.10
2023-03-01T17:56:34.988Z,2.33
2023-03-01T17:59:02.933Z,1.93
2023-03-01T18:01:31.398Z,2.77
2023-03-01T18:04:00.931Z,3.70
2023-03-01T18:06:30.345Z,3.73
2023-03-01T18:08:58.564Z,2.17
2023-03-01T18:11:27.202Z,2.07
2023-03-01T18:13:55.486Z,2.73
2023-03-01T18:16:24.009Z,2.50
2023-03-01T18:18:55.135Z,2.80
2023-03-01T18:21:24.560Z,2.90
2023-03-01T18:23:52.538Z,2.90
2023-03-01T18:26:22.367Z,2.50
2023-03-01T18:28:52.316Z,2.63
2023-03-01T18:31:22.617Z,2.47
2023-03-01T18:33:54.816Z,2.87
2023-03-01T18:36:26.694Z,2.30
2023-03-01T18:38:56.476Z,3.30
2023-03-01T18:41:25.655Z,3.20
2023-03-01T18:43:54.204Z,2.40
2023-03-01T18:46:22.531Z,3.57
2023-03-01T18:48:50.500Z,2.87
2023-03-01T18:51:21.146Z,3.17
2023-03-01T18:53:50.713Z,3.53
2023-03-01T18:56:19.223Z,3.00
2023-03-01T18:58:47.178Z,3.87
2023-03-01T19:01:16.972Z,3.03
2023-03-01T19:03:44.962Z,3.43
2023-03-01T19:06:13.191Z,2.93
2023-03-01T19:08:42.322Z,2.20
2023-03-01T19:11:13.491Z,4.03
2023-03-01T19:13:42.636Z,3.03
2023-03-01T19:16:13.490Z,2.93
2023-03-01T19:18:43.851Z,3.50
2023-03-01T19:21:12.945Z,3.37
2023-03-01T19:23:42.184Z,4.00
2023-03-01T19:26:14.041Z,3.60
2023-03-01T19:28:43.741Z,3.33
2023-03-01T19:31:13.952Z,3.53
2023-03-01T19:33:42.604Z,2.90
2023-03-01T19:36:12.383Z,2.90
2023-03-01T19:38:42.202Z,2.70
2023-03-01T19:41:14.751Z,2.90
2023-03-01T19:43:43.290Z,3.20
2023-03-01T19:46:12.416Z,3.37
2023-03-01T19:48:40.860Z,3.17
2023-03-01T19:51:09.781Z,2.90
2023-03-01T19:53:39.779Z,3.63
2023-03-01T19:56:09.106Z,2.97
2023-03-01T19:58:40.101Z,3.20
2023-03-01T20:01:16.136Z,2.77
2023-03-01T20:03:44.154Z,3.27
2023-03-01T20:06:14.141Z,3.20
2023-03-01T20:08:42.267Z,3.23
2023-03-01T20:11:12.542Z,3.33
2023-03-01T20:13:42.299Z,3.40
2023-03-01T20:16:11.056Z,2.73
2023-03-01T20:18:39.177Z,2.90
2023-03-01T20:21:21.497Z,2.23
2023-03-01T20:23:51.473Z,2.80
2023-03-01T20:26:20.395Z,3.30
2023-03-01T20:28:51.597Z,3.37
2023-03-01T20:31:21.588Z,3.10
2023-03-01T20:33:49.990Z,2.77
2023-03-01T20:36:17.969Z,2.77
2023-03-01T20:38:45.969Z,3.23
2023-03-01T20:41:14.818Z,2.23
2023-03-01T20:43:43.795Z,2.77
2023-03-01T20:46:14.930Z,4.00
2023-03-01T20:48:43.903Z,3.50
2023-03-01T20:51:13.701Z,3.47
2023-03-01T20:53:41.795Z,2.60
2023-03-01T20:56:12.787Z,3.10
2023-03-01T20:58:41.201Z,2.97
2023-03-01T21:01:16.643Z,2.77
2023-03-01T21:03:44.751Z,2.60
2023-03-01T21:06:12.911Z,2.70
2023-03-01T21:08:40.896Z,3.33
2023-03-01T21:11:09.041Z,2.63
2023-03-01T21:13:37.374Z,3.23
2023-03-01T21:16:10.127Z,2.77
2023-03-01T21:18:39.981Z,3.10
2023-03-01T21:21:10.313Z,3.93
2023-03-01T21:23:40.172Z,3.57
2023-03-01T21:26:09.819Z,2.57
2023-03-01T21:28:38.920Z,2.83
2023-03-01T21:31:09.087Z,3.40
2023-03-01T21:33:39.837Z,3.27
2023-03-01T21:36:10.289Z,2.70
2023-03-01T21:38:40.117Z,3.43
2023-03-01T21:41:09.308Z,3.33
2023-03-01T21:43:38.577Z,2.80
2023-03-01T21:46:08.590Z,3.60
2023-03-01T21:48:36.796Z,2.90
2023-03-01T21:51:06.708Z,2.93
2023-03-01T21:53:36.469Z,3.80
2023-03-01T21:56:05.318Z,3.97
2023-03-01T21:58:33.756Z,3.30
2023-03-01T22:01:09.878Z,3.23
2023-03-01T22:03:45.106Z,2.53
2023-03-01T22:06:19.524Z,3.50
2023-03-01T22:08:49.217Z,2.63
2023-03-01T22:11:19.061Z,3.00
2023-03-01T22:13:47.552Z,3.57
2023-03-01T22:16:15.696Z,3.77
2023-03-01T22:18:43.700Z,3.83
2023-03-01T22:21:12.006Z,3.43
2023-03-01T22:23:41.654Z,3.07
2023-03-01T22:26:11.072Z,3.47
2023-03-01T22:28:39.077Z,3.03
2023-03-01T22:31:07.225Z,3.23
2023-03-01T22:33:35.180Z,3.70
2023-03-01T22:36:03.335Z,3.17
2023-03-01T22:38:31.314Z,3.60
2023-03-01T22:41:02.432Z,4.13
2023-03-01T22:43:32.201Z,3.80
2023-03-01T22:46:00.767Z,3.37
2023-03-01T22:48:28.836Z,4.90
2023-03-01T22:50:56.925Z,4.50
2023-03-01T22:53:24.869Z,2.97
2023-03-01T22:55:52.846Z,4.40
2023-03-01T22:58:22.604Z,4.37
2023-03-01T23:00:50.629Z,4.20
2023-03-01T23:03:18.699Z,3.90
2023-03-01T23:05:46.781Z,3.77
2023-03-01T23:08:14.740Z,5.23
2023-03-01T23:10:42.697Z,4.20
2023-03-01T23:13:10.666Z,4.00
2023-03-01T23:15:44.751Z,3.90
2023-03-01T23:18:13.238Z,4.13
2023-03-01T23:20:41.212Z,4.57
2023-03-01T23:23:09.194Z,4.43
2023-03-01T23:25:37.156Z,4.80
2023-03-01T23:28:08.421Z,3.77
2023-03-01T23:30:36.413Z,4.30
2023-03-01T23:33:05.806Z,4.73
2023-03-01T23:35:33.853Z,4.90
2023-03-01T23:38:01.843Z,4.53
2023-03-01T23:40:29.804Z,5.57
2023-03-01T23:42:57.772Z,4.63
2023-03-01T23:45:25.765Z,4.53
2023-03-01T23:47:54.944Z,5.70
2023-03-01T23:50:25.322Z,6.17
2023-03-01T23:52:53.318Z,6.77
2023-03-01T23:55:22.285Z,7.70
2023-03-01T23:57:50.278Z,7.67
